sensor_id;sensor_type;location;lat;lon;timestamp;temperature;humidity
20911;DHT22;10615;42.702;23.314;2023-06-22T00:00:24;20.70;92.50
20911;DHT22;10615;42.702;23.314;2023-06-22T00:01:25;20.70;92.40
20911;DHT22;10615;42.702;23.314;2023-06-22T00:02:25;20.70;92.50
20911;DHT22;10615;42.702;23.314;2023-06-22T00:03:26;20.70;92.40
20911;DHT22;10615;42.702;23.314;2023-06-22T00:04:27;20.70;92.50
20911;DHT22;10615;42.702;23.314;2023-06-22T00:05:27;20.70;92.50
20911;DHT22;10615;42.702;23.314;2023-06-22T00:06:28;20.60;92.50
20911;DHT22;10615;42.702;23.314;2023-06-22T00:07:29;20.60;92.40
20911;DHT22;10615;42.702;23.314;2023-06-22T00:08:30;20.70;92.30
20911;DHT22;10615;42.702;23.314;2023-06-22T00:09:31;20.60;92.10
20911;DHT22;10615;42.702;23.314;2023-06-22T00:10:32;20.60;92.00
20911;DHT22;10615;42.702;23.314;2023-06-22T00:11:33;20.60;92.00
20911;DHT22;10615;42.702;23.314;2023-06-22T00:12:34;20.60;92.00
20911;DHT22;10615;42.702;23.314;2023-06-22T00:13:34;20.60;92.00
20911;DHT22;10615;42.702;23.314;2023-06-22T00:14:35;20.60;92.10
20911;DHT22;10615;42.702;23.314;2023-06-22T00:15:38;20.60;92.10
20911;DHT22;10615;42.702;23.314;2023-06-22T00:16:39;20.60;92.10
20911;DHT22;10615;42.702;23.314;2023-06-22T00:17:40;20.60;92.10
20911;DHT22;10615;42.702;23.314;2023-06-22T00:18:41;20.60;92.10
20911;DHT22;10615;42.702;23.314;2023-06-22T00:19:48;20.60;92.20
20911;DHT22;10615;42.702;23.314;2023-06-22T00:20:56;20.60;92.30
20911;DHT22;10615;42.702;23.314;2023-06-22T00:21:58;20.60;92.40
20911;DHT22;10615;42.702;23.314;2023-06-22T00:23:00;20.60;92.50
20911;DHT22;10615;42.702;23.314;2023-06-22T00:24:01;20.60;92.50
20911;DHT22;10615;42.702;23.314;2023-06-22T00:25:02;20.60;92.40
20911;DHT22;10615;42.702;23.314;2023-06-22T00:26:03;20.60;92.40
20911;DHT22;10615;42.702;23.314;2023-06-22T00:27:04;20.60;92.40
20911;DHT22;10615;42.702;23.314;2023-06-22T00:28:06;20.60;92.30
20911;DHT22;10615;42.702;23.314;2023-06-22T00:29:08;20.60;92.50
20911;DHT22;10615;42.702;23.314;2023-06-22T00:30:08;20.60;92.50
20911;DHT22;10615;42.702;23.314;2023-06-22T00:31:09;20.60;93.10
20911;DHT22;10615;42.702;23.314;2023-06-22T00:32:10;20.50;92.80
20911;DHT22;10615;42.702;23.314;2023-06-22T00:33:11;20.50;92.90
20911;DHT22;10615;42.702;23.314;2023-06-22T00:34:11;20.50;92.90
20911;DHT22;10615;42.702;23.314;2023-06-22T00:35:12;20.50;92.80
20911;DHT22;10615;42.702;23.314;2023-06-22T00:36:13;20.50;92.80
20911;DHT22;10615;42.702;23.314;2023-06-22T00:37:17;20.50;92.80
20911;DHT22;10615;42.702;23.314;2023-06-22T00:38:18;20.50;92.80
20911;DHT22;10615;42.702;23.314;2023-06-22T00:39:18;20.50;92.80
20911;DHT22;10615;42.702;23.314;2023-06-22T00:40:19;20.50;92.90
20911;DHT22;10615;42.702;23.314;2023-06-22T00:41:22;20.50;92.90
20911;DHT22;10615;42.702;23.314;2023-06-22T00:42:23;20.50;92.90
20911;DHT22;10615;42.702;23.314;2023-06-22T00:43:23;20.40;92.90
20911;DHT22;10615;42.702;23.314;2023-06-22T00:44:24;20.50;92.90
20911;DHT22;10615;42.702;23.314;2023-06-22T00:45:25;20.50;92.90
20911;DHT22;10615;42.702;23.314;2023-06-22T00:46:26;20.40;92.70
20911;DHT22;10615;42.702;23.314;2023-06-22T00:47:27;20.50;92.80
20911;DHT22;10615;42.702;23.314;2023-06-22T00:48:28;20.40;92.80
20911;DHT22;10615;42.702;23.314;2023-06-22T00:49:29;20.40;92.80
20911;DHT22;10615;42.702;23.314;2023-06-22T00:50:32;20.40;92.80
20911;DHT22;10615;42.702;23.314;2023-06-22T00:51:37;20.40;92.80
20911;DHT22;10615;42.702;23.314;2023-06-22T00:52:38;20.40;92.90
20911;DHT22;10615;42.702;23.314;2023-06-22T00:53:43;20.30;92.90
20911;DHT22;10615;42.702;23.314;2023-06-22T00:54:44;20.30;92.90
20911;DHT22;10615;42.702;23.314;2023-06-22T00:55:46;20.30;92.90
20911;DHT22;10615;42.702;23.314;2023-06-22T00:56:56;20.30;92.90
20911;DHT22;10615;42.702;23.314;2023-06-22T00:57:57;20.20;92.90
20911;DHT22;10615;42.702;23.314;2023-06-22T00:58:58;20.20;92.90
20911;DHT22;10615;42.702;23.314;2023-06-22T01:00:00;20.10;93.10
20911;DHT22;10615;42.702;23.314;2023-06-22T01:01:01;20.10;93.20
20911;DHT22;10615;42.702;23.314;2023-06-22T01:02:03;20.10;93.30
20911;DHT22;10615;42.702;23.314;2023-06-22T01:03:04;20.10;93.40
20911;DHT22;10615;42.702;23.314;2023-06-22T01:04:09;20.10;93.50
20911;DHT22;10615;42.702;23.314;2023-06-22T01:05:10;20.10;93.70
20911;DHT22;10615;42.702;23.314;2023-06-22T01:06:18;20.10;93.80
20911;DHT22;10615;42.702;23.314;2023-06-22T01:07:33;20.10;93.80
20911;DHT22;10615;42.702;23.314;2023-06-22T01:09:18;20.10;93.90
20911;DHT22;10615;42.702;23.314;2023-06-22T01:11:35;20.10;93.80
20911;DHT22;10615;42.702;23.314;2023-06-22T01:12:42;20.10;93.70
20911;DHT22;10615;42.702;23.314;2023-06-22T01:14:00;20.10;93.70
20911;DHT22;10615;42.702;23.314;2023-06-22T01:15:18;20.10;93.80
20911;DHT22;10615;42.702;23.314;2023-06-22T01:16:25;20.10;93.90
20911;DHT22;10615;42.702;23.314;2023-06-22T01:17:27;20.10;93.90
20911;DHT22;10615;42.702;23.314;2023-06-22T01:18:31;20.00;93.90
20911;DHT22;10615;42.702;23.314;2023-06-22T01:19:44;20.10;94.00
20911;DHT22;10615;42.702;23.314;2023-06-22T01:20:47;20.00;94.00
20911;DHT22;10615;42.702;23.314;2023-06-22T01:21:49;20.00;94.10
20911;DHT22;10615;42.702;23.314;2023-06-22T01:24:22;20.00;94.20
20911;DHT22;10615;42.702;23.314;2023-06-22T01:25:31;19.90;94.20
20911;DHT22;10615;42.702;23.314;2023-06-22T01:26:42;19.90;94.30
20911;DHT22;10615;42.702;23.314;2023-06-22T01:28:00;19.80;94.40
20911;DHT22;10615;42.702;23.314;2023-06-22T01:29:04;19.70;94.40
20911;DHT22;10615;42.702;23.314;2023-06-22T01:30:06;19.70;94.40
20911;DHT22;10615;42.702;23.314;2023-06-22T01:31:13;19.70;94.40
20911;DHT22;10615;42.702;23.314;2023-06-22T01:32:15;19.70;94.50
20911;DHT22;10615;42.702;23.314;2023-06-22T01:33:16;19.70;94.70
20911;DHT22;10615;42.702;23.314;2023-06-22T01:34:17;19.60;94.80
20911;DHT22;10615;42.702;23.314;2023-06-22T01:35:19;19.60;95.00
20911;DHT22;10615;42.702;23.314;2023-06-22T01:36:21;19.60;95.10
20911;DHT22;10615;42.702;23.314;2023-06-22T01:37:23;19.60;95.20
20911;DHT22;10615;42.702;23.314;2023-06-22T01:38:24;19.60;95.30
20911;DHT22;10615;42.702;23.314;2023-06-22T01:39:25;19.60;95.40
20911;DHT22;10615;42.702;23.314;2023-06-22T01:40:26;19.60;95.40
20911;DHT22;10615;42.702;23.314;2023-06-22T01:41:29;19.60;95.60
20911;DHT22;10615;42.702;23.314;2023-06-22T01:42:31;19.60;95.70
20911;DHT22;10615;42.702;23.314;2023-06-22T01:43:33;19.60;95.70
20911;DHT22;10615;42.702;23.314;2023-06-22T01:44:34;19.60;95.80
20911;DHT22;10615;42.702;23.314;2023-06-22T01:45:35;19.60;95.90
20911;DHT22;10615;42.702;23.314;2023-06-22T01:46:36;19.60;96.10
20911;DHT22;10615;42.702;23.314;2023-06-22T01:47:38;19.60;96.10
20911;DHT22;10615;42.702;23.314;2023-06-22T01:48:39;19.70;96.20
20911;DHT22;10615;42.702;23.314;2023-06-22T01:49:41;19.70;96.20
20911;DHT22;10615;42.702;23.314;2023-06-22T01:50:42;19.70;96.20
20911;DHT22;10615;42.702;23.314;2023-06-22T01:51:43;19.60;96.20
20911;DHT22;10615;42.702;23.314;2023-06-22T01:52:44;19.60;96.20
20911;DHT22;10615;42.702;23.314;2023-06-22T01:53:45;19.60;96.20
20911;DHT22;10615;42.702;23.314;2023-06-22T01:54:48;19.60;96.30
20911;DHT22;10615;42.702;23.314;2023-06-22T01:55:48;19.60;96.30
20911;DHT22;10615;42.702;23.314;2023-06-22T01:56:49;19.60;96.40
20911;DHT22;10615;42.702;23.314;2023-06-22T01:57:50;19.60;96.50
20911;DHT22;10615;42.702;23.314;2023-06-22T02:00:21;19.50;96.70
20911;DHT22;10615;42.702;23.314;2023-06-22T02:01:31;19.50;96.80
20911;DHT22;10615;42.702;23.314;2023-06-22T02:04:05;19.50;97.10
20911;DHT22;10615;42.702;23.314;2023-06-22T02:05:08;19.50;97.20
20911;DHT22;10615;42.702;23.314;2023-06-22T02:06:25;19.50;97.30
20911;DHT22;10615;42.702;23.314;2023-06-22T02:07:31;19.50;97.30
20911;DHT22;10615;42.702;23.314;2023-06-22T02:08:38;19.60;97.50
20911;DHT22;10615;42.702;23.314;2023-06-22T02:09:43;19.50;97.40
20911;DHT22;10615;42.702;23.314;2023-06-22T02:10:46;19.50;97.60
20911;DHT22;10615;42.702;23.314;2023-06-22T02:11:47;19.50;97.70
20911;DHT22;10615;42.702;23.314;2023-06-22T02:12:53;19.50;97.80
20911;DHT22;10615;42.702;23.314;2023-06-22T02:13:56;19.50;97.90
20911;DHT22;10615;42.702;23.314;2023-06-22T02:14:58;19.50;97.90
20911;DHT22;10615;42.702;23.314;2023-06-22T02:16:01;19.50;97.90
20911;DHT22;10615;42.702;23.314;2023-06-22T02:17:02;19.50;97.90
20911;DHT22;10615;42.702;23.314;2023-06-22T02:18:08;19.50;97.90
20911;DHT22;10615;42.702;23.314;2023-06-22T02:19:08;19.50;97.90
20911;DHT22;10615;42.702;23.314;2023-06-22T02:20:12;19.50;97.80
20911;DHT22;10615;42.702;23.314;2023-06-22T02:21:14;19.50;97.70
20911;DHT22;10615;42.702;23.314;2023-06-22T02:22:14;19.50;97.70
20911;DHT22;10615;42.702;23.314;2023-06-22T02:23:15;19.50;97.60
20911;DHT22;10615;42.702;23.314;2023-06-22T02:24:16;19.50;97.50
20911;DHT22;10615;42.702;23.314;2023-06-22T02:25:17;19.50;97.50
20911;DHT22;10615;42.702;23.314;2023-06-22T02:26:18;19.50;97.50
20911;DHT22;10615;42.702;23.314;2023-06-22T02:27:18;19.50;97.40
20911;DHT22;10615;42.702;23.314;2023-06-22T02:28:19;19.50;97.40
20911;DHT22;10615;42.702;23.314;2023-06-22T02:29:20;19.50;97.40
20911;DHT22;10615;42.702;23.314;2023-06-22T02:30:20;19.40;97.40
20911;DHT22;10615;42.702;23.314;2023-06-22T02:31:21;19.50;97.50
20911;DHT22;10615;42.702;23.314;2023-06-22T02:32:22;19.50;97.50
20911;DHT22;10615;42.702;23.314;2023-06-22T02:33:22;19.50;97.50
20911;DHT22;10615;42.702;23.314;2023-06-22T02:34:23;19.40;97.50
20911;DHT22;10615;42.702;23.314;2023-06-22T02:35:30;19.40;97.60
20911;DHT22;10615;42.702;23.314;2023-06-22T02:36:35;19.40;97.60
20911;DHT22;10615;42.702;23.314;2023-06-22T02:37:37;19.40;97.70
20911;DHT22;10615;42.702;23.314;2023-06-22T02:38:42;19.40;97.70
20911;DHT22;10615;42.702;23.314;2023-06-22T02:39:48;19.40;97.80
20911;DHT22;10615;42.702;23.314;2023-06-22T02:40:49;19.40;97.80
20911;DHT22;10615;42.702;23.314;2023-06-22T02:41:50;19.40;97.80
20911;DHT22;10615;42.702;23.314;2023-06-22T02:42:51;19.40;97.80
20911;DHT22;10615;42.702;23.314;2023-06-22T02:43:52;19.40;97.90
20911;DHT22;10615;42.702;23.314;2023-06-22T02:44:52;19.40;97.90
20911;DHT22;10615;42.702;23.314;2023-06-22T02:45:53;19.40;97.90
20911;DHT22;10615;42.702;23.314;2023-06-22T02:46:54;19.40;97.90
20911;DHT22;10615;42.702;23.314;2023-06-22T02:47:56;19.40;97.80
20911;DHT22;10615;42.702;23.314;2023-06-22T02:48:56;19.40;97.80
20911;DHT22;10615;42.702;23.314;2023-06-22T02:49:57;19.40;97.80
20911;DHT22;10615;42.702;23.314;2023-06-22T02:50:58;19.40;97.80
20911;DHT22;10615;42.702;23.314;2023-06-22T02:51:58;19.40;97.80
20911;DHT22;10615;42.702;23.314;2023-06-22T02:52:59;19.40;97.80
20911;DHT22;10615;42.702;23.314;2023-06-22T02:54:00;19.40;97.80
20911;DHT22;10615;42.702;23.314;2023-06-22T02:55:01;19.40;97.80
20911;DHT22;10615;42.702;23.314;2023-06-22T02:56:02;19.40;97.80
20911;DHT22;10615;42.702;23.314;2023-06-22T02:57:06;19.40;97.80
20911;DHT22;10615;42.702;23.314;2023-06-22T02:58:07;19.40;97.90
20911;DHT22;10615;42.702;23.314;2023-06-22T02:59:07;19.40;97.90
20911;DHT22;10615;42.702;23.314;2023-06-22T03:00:08;19.40;97.90
20911;DHT22;10615;42.702;23.314;2023-06-22T03:01:17;19.40;97.90
20911;DHT22;10615;42.702;23.314;2023-06-22T03:02:23;19.40;97.90
20911;DHT22;10615;42.702;23.314;2023-06-22T03:03:24;19.50;98.00
20911;DHT22;10615;42.702;23.314;2023-06-22T03:04:26;19.50;98.00
20911;DHT22;10615;42.702;23.314;2023-06-22T03:05:27;19.50;98.00
20911;DHT22;10615;42.702;23.314;2023-06-22T03:06:28;19.60;97.90
20911;DHT22;10615;42.702;23.314;2023-06-22T03:07:28;19.60;97.80
20911;DHT22;10615;42.702;23.314;2023-06-22T03:08:30;19.60;97.70
20911;DHT22;10615;42.702;23.314;2023-06-22T03:09:31;19.70;97.60
20911;DHT22;10615;42.702;23.314;2023-06-22T03:10:31;19.70;97.90
20911;DHT22;10615;42.702;23.314;2023-06-22T03:11:33;19.70;97.50
20911;DHT22;10615;42.702;23.314;2023-06-22T03:12:34;19.70;97.40
20911;DHT22;10615;42.702;23.314;2023-06-22T03:13:34;19.80;97.40
20911;DHT22;10615;42.702;23.314;2023-06-22T03:14:35;19.80;97.40
20911;DHT22;10615;42.702;23.314;2023-06-22T03:15:36;19.80;97.30
20911;DHT22;10615;42.702;23.314;2023-06-22T03:16:36;19.80;97.30
20911;DHT22;10615;42.702;23.314;2023-06-22T03:17:38;19.90;97.20
20911;DHT22;10615;42.702;23.314;2023-06-22T03:18:40;19.90;97.10
20911;DHT22;10615;42.702;23.314;2023-06-22T03:19:40;19.90;97.00
20911;DHT22;10615;42.702;23.314;2023-06-22T03:20:41;19.90;97.00
20911;DHT22;10615;42.702;23.314;2023-06-22T03:21:42;19.90;97.00
20911;DHT22;10615;42.702;23.314;2023-06-22T03:22:42;20.00;97.00
20911;DHT22;10615;42.702;23.314;2023-06-22T03:23:44;20.00;96.90
20911;DHT22;10615;42.702;23.314;2023-06-22T03:24:44;20.00;96.90
20911;DHT22;10615;42.702;23.314;2023-06-22T03:25:45;20.10;96.90
20911;DHT22;10615;42.702;23.314;2023-06-22T03:26:46;20.20;96.80
20911;DHT22;10615;42.702;23.314;2023-06-22T03:27:47;20.20;96.70
20911;DHT22;10615;42.702;23.314;2023-06-22T03:28:48;20.10;96.60
20911;DHT22;10615;42.702;23.314;2023-06-22T03:29:49;20.30;96.50
20911;DHT22;10615;42.702;23.314;2023-06-22T03:30:50;20.40;96.40
20911;DHT22;10615;42.702;23.314;2023-06-22T03:31:50;20.40;96.10
20911;DHT22;10615;42.702;23.314;2023-06-22T03:32:51;20.40;95.90
20911;DHT22;10615;42.702;23.314;2023-06-22T03:33:52;20.50;95.90
20911;DHT22;10615;42.702;23.314;2023-06-22T03:34:52;20.50;95.80
20911;DHT22;10615;42.702;23.314;2023-06-22T03:35:53;20.60;95.80
20911;DHT22;10615;42.702;23.314;2023-06-22T03:36:54;20.70;95.70
20911;DHT22;10615;42.702;23.314;2023-06-22T03:37:54;20.80;95.50
20911;DHT22;10615;42.702;23.314;2023-06-22T03:38:55;20.90;95.30
20911;DHT22;10615;42.702;23.314;2023-06-22T03:39:56;21.00;95.20
20911;DHT22;10615;42.702;23.314;2023-06-22T03:40:56;21.10;95.00
20911;DHT22;10615;42.702;23.314;2023-06-22T03:41:58;21.20;94.80
20911;DHT22;10615;42.702;23.314;2023-06-22T03:42:58;21.20;94.40
20911;DHT22;10615;42.702;23.314;2023-06-22T03:43:59;21.30;94.30
20911;DHT22;10615;42.702;23.314;2023-06-22T03:44:59;21.40;94.00
20911;DHT22;10615;42.702;23.314;2023-06-22T03:46:01;21.50;93.70
20911;DHT22;10615;42.702;23.314;2023-06-22T03:47:05;21.50;93.50
20911;DHT22;10615;42.702;23.314;2023-06-22T03:48:07;21.60;93.20
20911;DHT22;10615;42.702;23.314;2023-06-22T03:49:08;21.60;93.00
20911;DHT22;10615;42.702;23.314;2023-06-22T03:50:09;21.70;92.80
20911;DHT22;10615;42.702;23.314;2023-06-22T03:51:10;21.70;92.60
20911;DHT22;10615;42.702;23.314;2023-06-22T03:52:10;21.80;92.40
20911;DHT22;10615;42.702;23.314;2023-06-22T03:53:11;21.90;92.10
20911;DHT22;10615;42.702;23.314;2023-06-22T03:54:12;21.90;91.90
20911;DHT22;10615;42.702;23.314;2023-06-22T03:55:12;22.00;91.70
20911;DHT22;10615;42.702;23.314;2023-06-22T03:56:13;22.00;91.50
20911;DHT22;10615;42.702;23.314;2023-06-22T03:57:20;22.10;91.20
20911;DHT22;10615;42.702;23.314;2023-06-22T03:58:21;22.10;91.10
20911;DHT22;10615;42.702;23.314;2023-06-22T03:59:22;22.20;90.90
20911;DHT22;10615;42.702;23.314;2023-06-22T04:00:25;22.30;90.70
20911;DHT22;10615;42.702;23.314;2023-06-22T04:01:26;22.30;90.40
20911;DHT22;10615;42.702;23.314;2023-06-22T04:02:27;22.30;90.10
20911;DHT22;10615;42.702;23.314;2023-06-22T04:03:27;22.40;90.20
20911;DHT22;10615;42.702;23.314;2023-06-22T04:04:28;22.40;89.20
20911;DHT22;10615;42.702;23.314;2023-06-22T04:05:29;22.40;88.80
20911;DHT22;10615;42.702;23.314;2023-06-22T04:06:29;22.40;88.50
20911;DHT22;10615;42.702;23.314;2023-06-22T04:07:30;22.40;88.20
20911;DHT22;10615;42.702;23.314;2023-06-22T04:08:31;22.50;88.20
20911;DHT22;10615;42.702;23.314;2023-06-22T04:09:31;22.60;87.90
20911;DHT22;10615;42.702;23.314;2023-06-22T04:10:32;22.60;87.50
20911;DHT22;10615;42.702;23.314;2023-06-22T04:11:33;22.70;87.10
20911;DHT22;10615;42.702;23.314;2023-06-22T04:12:33;22.80;86.80
20911;DHT22;10615;42.702;23.314;2023-06-22T04:13:34;23.00;86.50
20911;DHT22;10615;42.702;23.314;2023-06-22T04:14:35;23.10;85.80
20911;DHT22;10615;42.702;23.314;2023-06-22T04:15:35;23.20;85.30
20911;DHT22;10615;42.702;23.314;2023-06-22T04:16:36;23.40;84.60
20911;DHT22;10615;42.702;23.314;2023-06-22T04:17:37;23.60;83.90
20911;DHT22;10615;42.702;23.314;2023-06-22T04:18:37;23.70;83.00
20911;DHT22;10615;42.702;23.314;2023-06-22T04:19:38;23.90;82.30
20911;DHT22;10615;42.702;23.314;2023-06-22T04:20:39;24.00;81.30
20911;DHT22;10615;42.702;23.314;2023-06-22T04:21:40;24.20;80.60
20911;DHT22;10615;42.702;23.314;2023-06-22T04:22:41;24.40;79.60
20911;DHT22;10615;42.702;23.314;2023-06-22T04:23:41;24.50;78.60
20911;DHT22;10615;42.702;23.314;2023-06-22T04:24:44;24.70;77.40
20911;DHT22;10615;42.702;23.314;2023-06-22T04:25:44;24.70;76.30
20911;DHT22;10615;42.702;23.314;2023-06-22T04:26:45;24.80;75.90
20911;DHT22;10615;42.702;23.314;2023-06-22T04:27:47;24.90;75.70
20911;DHT22;10615;42.702;23.314;2023-06-22T04:28:48;25.10;75.10
20911;DHT22;10615;42.702;23.314;2023-06-22T04:29:56;25.20;74.20
20911;DHT22;10615;42.702;23.314;2023-06-22T04:30:56;25.40;73.70
20911;DHT22;10615;42.702;23.314;2023-06-22T04:31:58;25.60;73.20
20911;DHT22;10615;42.702;23.314;2023-06-22T04:33:03;25.90;72.20
20911;DHT22;10615;42.702;23.314;2023-06-22T04:34:05;26.10;71.00
20911;DHT22;10615;42.702;23.314;2023-06-22T04:35:07;26.20;70.10
20911;DHT22;10615;42.702;23.314;2023-06-22T04:36:07;26.30;69.50
20911;DHT22;10615;42.702;23.314;2023-06-22T04:37:08;26.50;68.70
20911;DHT22;10615;42.702;23.314;2023-06-22T04:38:09;26.60;67.60
20911;DHT22;10615;42.702;23.314;2023-06-22T04:39:11;26.60;66.90
20911;DHT22;10615;42.702;23.314;2023-06-22T04:40:12;26.70;66.60
20911;DHT22;10615;42.702;23.314;2023-06-22T04:41:15;26.90;66.00
20911;DHT22;10615;42.702;23.314;2023-06-22T04:42:26;27.00;65.30
20911;DHT22;10615;42.702;23.314;2023-06-22T04:43:27;27.20;64.50
20911;DHT22;10615;42.702;23.314;2023-06-22T04:44:30;27.40;63.90
20911;DHT22;10615;42.702;23.314;2023-06-22T04:45:34;27.60;63.20
20911;DHT22;10615;42.702;23.314;2023-06-22T04:46:38;27.70;62.50
20911;DHT22;10615;42.702;23.314;2023-06-22T04:47:39;27.90;61.70
20911;DHT22;10615;42.702;23.314;2023-06-22T04:48:40;28.10;61.20
20911;DHT22;10615;42.702;23.314;2023-06-22T04:49:40;28.30;60.40
20911;DHT22;10615;42.702;23.314;2023-06-22T04:50:43;28.40;59.70
20911;DHT22;10615;42.702;23.314;2023-06-22T04:51:44;28.60;59.10
20911;DHT22;10615;42.702;23.314;2023-06-22T04:52:45;28.70;58.50
20911;DHT22;10615;42.702;23.314;2023-06-22T04:53:46;28.80;58.10
20911;DHT22;10615;42.702;23.314;2023-06-22T04:54:47;28.90;57.90
20911;DHT22;10615;42.702;23.314;2023-06-22T04:55:48;29.10;57.60
20911;DHT22;10615;42.702;23.314;2023-06-22T04:56:49;29.20;57.20
20911;DHT22;10615;42.702;23.314;2023-06-22T04:57:57;29.40;56.80
20911;DHT22;10615;42.702;23.314;2023-06-22T04:59:04;29.70;56.40
20911;DHT22;10615;42.702;23.314;2023-06-22T05:00:05;30.20;55.80
20911;DHT22;10615;42.702;23.314;2023-06-22T05:01:12;30.60;54.80
20911;DHT22;10615;42.702;23.314;2023-06-22T05:02:13;31.10;53.30
20911;DHT22;10615;42.702;23.314;2023-06-22T05:03:14;31.50;51.90
20911;DHT22;10615;42.702;23.314;2023-06-22T05:04:18;32.00;50.70
20911;DHT22;10615;42.702;23.314;2023-06-22T05:05:19;32.60;49.60
20911;DHT22;10615;42.702;23.314;2023-06-22T05:06:20;33.10;48.40
20911;DHT22;10615;42.702;23.314;2023-06-22T05:07:21;33.60;47.10
20911;DHT22;10615;42.702;23.314;2023-06-22T05:08:25;34.20;46.20
20911;DHT22;10615;42.702;23.314;2023-06-22T05:09:27;34.80;44.90
20911;DHT22;10615;42.702;23.314;2023-06-22T05:10:27;35.40;44.00
20911;DHT22;10615;42.702;23.314;2023-06-22T05:11:29;35.90;42.90
20911;DHT22;10615;42.702;23.314;2023-06-22T05:12:30;36.40;41.80
20911;DHT22;10615;42.702;23.314;2023-06-22T05:13:31;37.00;41.00
20911;DHT22;10615;42.702;23.314;2023-06-22T05:14:32;37.50;40.30
20911;DHT22;10615;42.702;23.314;2023-06-22T05:15:32;38.10;39.50
20911;DHT22;10615;42.702;23.314;2023-06-22T05:16:37;38.50;38.20
20911;DHT22;10615;42.702;23.314;2023-06-22T05:17:38;39.00;37.40
20911;DHT22;10615;42.702;23.314;2023-06-22T05:18:45;39.50;36.60
20911;DHT22;10615;42.702;23.314;2023-06-22T05:19:46;39.90;35.90
20911;DHT22;10615;42.702;23.314;2023-06-22T05:20:49;40.30;35.10
20911;DHT22;10615;42.702;23.314;2023-06-22T05:21:50;40.60;34.50
20911;DHT22;10615;42.702;23.314;2023-06-22T05:22:51;40.80;34.10
20911;DHT22;10615;42.702;23.314;2023-06-22T05:23:52;41.20;33.60
20911;DHT22;10615;42.702;23.314;2023-06-22T05:24:53;41.60;33.00
20911;DHT22;10615;42.702;23.314;2023-06-22T05:25:54;41.90;32.30
20911;DHT22;10615;42.702;23.314;2023-06-22T05:26:55;42.10;31.90
20911;DHT22;10615;42.702;23.314;2023-06-22T05:27:56;42.50;31.50
20911;DHT22;10615;42.702;23.314;2023-06-22T05:28:57;42.60;30.90
20911;DHT22;10615;42.702;23.314;2023-06-22T05:30:59;43.20;30.00
20911;DHT22;10615;42.702;23.314;2023-06-22T05:31:59;43.50;30.00
20911;DHT22;10615;42.702;23.314;2023-06-22T05:33:00;43.70;29.50
20911;DHT22;10615;42.702;23.314;2023-06-22T05:34:01;43.90;29.30
20911;DHT22;10615;42.702;23.314;2023-06-22T05:35:03;44.00;29.10
20911;DHT22;10615;42.702;23.314;2023-06-22T05:36:03;44.20;28.90
20911;DHT22;10615;42.702;23.314;2023-06-22T05:37:05;44.20;28.60
20911;DHT22;10615;42.702;23.314;2023-06-22T05:38:05;44.30;28.40
20911;DHT22;10615;42.702;23.314;2023-06-22T05:39:13;44.40;28.40
20911;DHT22;10615;42.702;23.314;2023-06-22T05:40:16;44.40;28.20
20911;DHT22;10615;42.702;23.314;2023-06-22T05:41:17;44.40;28.20
20911;DHT22;10615;42.702;23.314;2023-06-22T05:42:18;44.40;28.20
20911;DHT22;10615;42.702;23.314;2023-06-22T05:43:18;44.30;28.30
20911;DHT22;10615;42.702;23.314;2023-06-22T05:44:19;44.20;28.30
20911;DHT22;10615;42.702;23.314;2023-06-22T05:45:20;44.20;28.20
20911;DHT22;10615;42.702;23.314;2023-06-22T05:46:20;44.00;28.10
20911;DHT22;10615;42.702;23.314;2023-06-22T05:47:21;43.70;27.90
20911;DHT22;10615;42.702;23.314;2023-06-22T05:48:23;43.30;28.30
20911;DHT22;10615;42.702;23.314;2023-06-22T05:49:23;43.30;29.00
20911;DHT22;10615;42.702;23.314;2023-06-22T05:50:29;43.20;28.50
20911;DHT22;10615;42.702;23.314;2023-06-22T05:51:30;43.10;28.70
20911;DHT22;10615;42.702;23.314;2023-06-22T05:52:31;43.30;28.70
20911;DHT22;10615;42.702;23.314;2023-06-22T05:53:31;43.60;28.60
20911;DHT22;10615;42.702;23.314;2023-06-22T05:54:32;43.80;28.30
20911;DHT22;10615;42.702;23.314;2023-06-22T05:55:33;44.10;28.20
20911;DHT22;10615;42.702;23.314;2023-06-22T05:56:34;44.40;28.10
20911;DHT22;10615;42.702;23.314;2023-06-22T05:57:35;44.70;27.70
20911;DHT22;10615;42.702;23.314;2023-06-22T05:58:36;44.90;27.50
20911;DHT22;10615;42.702;23.314;2023-06-22T05:59:36;45.20;27.90
20911;DHT22;10615;42.702;23.314;2023-06-22T06:00:37;45.40;27.20
20911;DHT22;10615;42.702;23.314;2023-06-22T06:01:38;45.80;26.90
20911;DHT22;10615;42.702;23.314;2023-06-22T06:02:40;46.00;26.70
20911;DHT22;10615;42.702;23.314;2023-06-22T06:03:44;46.10;26.50
20911;DHT22;10615;42.702;23.314;2023-06-22T06:04:45;46.20;26.50
20911;DHT22;10615;42.702;23.314;2023-06-22T06:05:46;46.30;26.50
20911;DHT22;10615;42.702;23.314;2023-06-22T06:06:46;46.50;26.40
20911;DHT22;10615;42.702;23.314;2023-06-22T06:07:50;46.40;26.00
20911;DHT22;10615;42.702;23.314;2023-06-22T06:08:51;46.30;26.10
20911;DHT22;10615;42.702;23.314;2023-06-22T06:09:51;46.50;26.10
20911;DHT22;10615;42.702;23.314;2023-06-22T06:10:52;46.80;25.90
20911;DHT22;10615;42.702;23.314;2023-06-22T06:11:54;47.00;25.60
20911;DHT22;10615;42.702;23.314;2023-06-22T06:12:55;47.10;25.40
20911;DHT22;10615;42.702;23.314;2023-06-22T06:13:56;47.10;25.30
20911;DHT22;10615;42.702;23.314;2023-06-22T06:14:56;47.00;25.20
20911;DHT22;10615;42.702;23.314;2023-06-22T06:15:57;46.90;25.30
20911;DHT22;10615;42.702;23.314;2023-06-22T06:16:59;46.80;25.30
20911;DHT22;10615;42.702;23.314;2023-06-22T06:18:00;46.70;25.30
20911;DHT22;10615;42.702;23.314;2023-06-22T06:19:02;46.80;25.30
20911;DHT22;10615;42.702;23.314;2023-06-22T06:20:03;46.90;25.30
20911;DHT22;10615;42.702;23.314;2023-06-22T06:21:05;47.10;25.20
20911;DHT22;10615;42.702;23.314;2023-06-22T06:22:06;47.20;25.20
20911;DHT22;10615;42.702;23.314;2023-06-22T06:23:06;47.40;25.20
20911;DHT22;10615;42.702;23.314;2023-06-22T06:24:07;47.80;25.10
20911;DHT22;10615;42.702;23.314;2023-06-22T06:25:09;48.00;24.70
20911;DHT22;10615;42.702;23.314;2023-06-22T06:26:10;48.20;24.60
20911;DHT22;10615;42.702;23.314;2023-06-22T06:27:10;48.20;24.50
20911;DHT22;10615;42.702;23.314;2023-06-22T06:28:11;48.40;24.40
20911;DHT22;10615;42.702;23.314;2023-06-22T06:29:12;48.70;24.10
20911;DHT22;10615;42.702;23.314;2023-06-22T06:30:14;48.90;23.90
20911;DHT22;10615;42.702;23.314;2023-06-22T06:31:15;49.00;23.70
20911;DHT22;10615;42.702;23.314;2023-06-22T06:32:18;49.10;23.70